sensor_id;sensor_type;location;lat;lon;timestamp;P1;durP1;ratioP1;P2;durP2;ratioP2
52888;SDS011;41413;52.770;6.892;2023-04-08T00:00:08;11.45;;;10.15;;
52888;SDS011;41413;52.770;6.892;2023-04-08T00:02:35;11.77;;;10.57;;
52888;SDS011;41413;52.770;6.892;2023-04-08T00:05:02;9.77;;;8.85;;
52888;SDS011;41413;52.770;6.892;2023-04-08T00:07:30;11.10;;;9.63;;
52888;SDS011;41413;52.770;6.892;2023-04-08T00:09:57;11.52;;;9.00;;
52888;SDS011;41413;52.770;6.892;2023-04-08T00:12:23;11.05;;;7.85;;
52888;SDS011;41413;52.770;6.892;2023-04-08T00:14:50;18.23;;;9.15;;
52888;SDS011;41413;52.770;6.892;2023-04-08T00:17:17;12.15;;;10.18;;
52888;SDS011;41413;52.770;6.892;2023-04-08T00:19:44;9.70;;;8.70;;
52888;SDS011;41413;52.770;6.892;2023-04-08T00:22:11;10.80;;;9.80;;
52888;SDS011;41413;52.770;6.892;2023-04-08T00:24:38;10.50;;;9.50;;
52888;SDS011;41413;52.770;6.892;2023-04-08T00:27:05;9.60;;;8.60;;
52888;SDS011;41413;52.770;6.892;2023-04-08T00:29:32;11.55;;;10.35;;
52888;SDS011;41413;52.770;6.892;2023-04-08T00:31:59;13.55;;;9.68;;
52888;SDS011;41413;52.770;6.892;2023-04-08T00:34:26;11.18;;;10.05;;
52888;SDS011;41413;52.770;6.892;2023-04-08T00:36:52;10.90;;;9.82;;
52888;SDS011;41413;52.770;6.892;2023-04-08T00:39:19;13.05;;;11.73;;
52888;SDS011;41413;52.770;6.892;2023-04-08T00:41:46;13.25;;;10.30;;
52888;SDS011;41413;52.770;6.892;2023-04-08T00:44:12;11.45;;;9.45;;
52888;SDS011;41413;52.770;6.892;2023-04-08T00:46:39;11.35;;;10.30;;
52888;SDS011;41413;52.770;6.892;2023-04-08T00:49:06;11.60;;;10.23;;
52888;SDS011;41413;52.770;6.892;2023-04-08T00:51:33;11.13;;;10.13;;
52888;SDS011;41413;52.770;6.892;2023-04-08T00:54:03;15.50;;;9.77;;
52888;SDS011;41413;52.770;6.892;2023-04-08T00:56:30;13.40;;;11.27;;
52888;SDS011;41413;52.770;6.892;2023-04-08T00:58:58;11.48;;;10.35;;
52888;SDS011;41413;52.770;6.892;2023-04-08T01:04:05;13.73;;;12.35;;
52888;SDS011;41413;52.770;6.892;2023-04-08T01:06:56;11.88;;;10.68;;
52888;SDS011;41413;52.770;6.892;2023-04-08T01:09:31;13.35;;;11.77;;
52888;SDS011;41413;52.770;6.892;2023-04-08T01:12:02;14.75;;;11.40;;
52888;SDS011;41413;52.770;6.892;2023-04-08T01:14:34;12.85;;;11.32;;
52888;SDS011;41413;52.770;6.892;2023-04-08T01:17:04;12.00;;;10.80;;
52888;SDS011;41413;52.770;6.892;2023-04-08T01:19:33;12.75;;;11.63;;
52888;SDS011;41413;52.770;6.892;2023-04-08T01:22:04;13.55;;;12.25;;
52888;SDS011;41413;52.770;6.892;2023-04-08T01:24:42;13.57;;;12.32;;
52888;SDS011;41413;52.770;6.892;2023-04-08T01:27:10;12.95;;;11.57;;
52888;SDS011;41413;52.770;6.892;2023-04-08T01:29:38;14.25;;;11.40;;
52888;SDS011;41413;52.770;6.892;2023-04-08T01:32:07;13.93;;;12.55;;
52888;SDS011;41413;52.770;6.892;2023-04-08T01:34:35;13.38;;;12.07;;
52888;SDS011;41413;52.770;6.892;2023-04-08T01:37:03;13.02;;;11.27;;
52888;SDS011;41413;52.770;6.892;2023-04-08T01:39:32;14.52;;;13.20;;
52888;SDS011;41413;52.770;6.892;2023-04-08T01:42:01;14.05;;;12.65;;
52888;SDS011;41413;52.770;6.892;2023-04-08T01:44:28;14.30;;;12.75;;
52888;SDS011;41413;52.770;6.892;2023-04-08T01:46:56;14.38;;;13.07;;
52888;SDS011;41413;52.770;6.892;2023-04-08T01:49:23;14.15;;;12.75;;
52888;SDS011;41413;52.770;6.892;2023-04-08T01:51:51;14.43;;;13.00;;
52888;SDS011;41413;52.770;6.892;2023-04-08T01:54:20;14.15;;;12.80;;
52888;SDS011;41413;52.770;6.892;2023-04-08T01:56:47;14.18;;;12.77;;
52888;SDS011;41413;52.770;6.892;2023-04-08T01:59:16;14.35;;;13.00;;
52888;SDS011;41413;52.770;6.892;2023-04-08T02:01:46;13.13;;;11.88;;
52888;SDS011;41413;52.770;6.892;2023-04-08T02:04:14;13.38;;;11.98;;
52888;SDS011;41413;52.770;6.892;2023-04-08T02:06:41;14.52;;;13.23;;
52888;SDS011;41413;52.770;6.892;2023-04-08T02:09:08;15.07;;;13.65;;
52888;SDS011;41413;52.770;6.892;2023-04-08T02:11:34;14.85;;;13.35;;
52888;SDS011;41413;52.770;6.892;2023-04-08T02:14:01;13.93;;;12.63;;
52888;SDS011;41413;52.770;6.892;2023-04-08T02:18:59;13.68;;;12.27;;
52888;SDS011;41413;52.770;6.892;2023-04-08T02:21:35;14.20;;;12.88;;
52888;SDS011;41413;52.770;6.892;2023-04-08T02:24:08;15.35;;;13.82;;
52888;SDS011;41413;52.770;6.892;2023-04-08T02:26:38;14.35;;;12.95;;
52888;SDS011;41413;52.770;6.892;2023-04-08T02:29:08;14.13;;;12.88;;
52888;SDS011;41413;52.770;6.892;2023-04-08T02:31:42;14.85;;;13.30;;
52888;SDS011;41413;52.770;6.892;2023-04-08T02:34:10;15.52;;;13.95;;
52888;SDS011;41413;52.770;6.892;2023-04-08T02:36:37;14.85;;;13.32;;
52888;SDS011;41413;52.770;6.892;2023-04-08T02:39:06;15.18;;;13.60;;
52888;SDS011;41413;52.770;6.892;2023-04-08T02:41:32;14.82;;;13.55;;
52888;SDS011;41413;52.770;6.892;2023-04-08T02:43:59;15.80;;;14.02;;
52888;SDS011;41413;52.770;6.892;2023-04-08T02:46:26;17.13;;;15.40;;
52888;SDS011;41413;52.770;6.892;2023-04-08T02:48:53;15.38;;;13.80;;
52888;SDS011;41413;52.770;6.892;2023-04-08T02:51:19;15.43;;;13.95;;
52888;SDS011;41413;52.770;6.892;2023-04-08T02:53:46;18.85;;;14.02;;
52888;SDS011;41413;52.770;6.892;2023-04-08T02:56:13;16.95;;;15.18;;
52888;SDS011;41413;52.770;6.892;2023-04-08T02:58:40;16.88;;;14.93;;
52888;SDS011;41413;52.770;6.892;2023-04-08T03:01:07;17.75;;;15.95;;
52888;SDS011;41413;52.770;6.892;2023-04-08T03:03:34;16.80;;;15.00;;
52888;SDS011;41413;52.770;6.892;2023-04-08T03:06:01;16.10;;;14.70;;
52888;SDS011;41413;52.770;6.892;2023-04-08T03:08:28;16.80;;;15.18;;
52888;SDS011;41413;52.770;6.892;2023-04-08T03:10:55;16.02;;;14.60;;
52888;SDS011;41413;52.770;6.892;2023-04-08T03:13:22;17.10;;;15.40;;
52888;SDS011;41413;52.770;6.892;2023-04-08T03:15:48;18.05;;;16.20;;
52888;SDS011;41413;52.770;6.892;2023-04-08T03:18:15;17.48;;;15.85;;
52888;SDS011;41413;52.770;6.892;2023-04-08T03:20:42;17.52;;;15.95;;
52888;SDS011;41413;52.770;6.892;2023-04-08T03:23:09;21.48;;;16.85;;
52888;SDS011;41413;52.770;6.892;2023-04-08T03:25:36;18.23;;;16.33;;
52888;SDS011;41413;52.770;6.892;2023-04-08T03:28:03;19.98;;;18.10;;
52888;SDS011;41413;52.770;6.892;2023-04-08T03:30:30;18.92;;;17.08;;
52888;SDS011;41413;52.770;6.892;2023-04-08T03:32:57;21.05;;;18.73;;
52888;SDS011;41413;52.770;6.892;2023-04-08T03:35:23;18.60;;;16.80;;
52888;SDS011;41413;52.770;6.892;2023-04-08T03:37:50;20.63;;;18.63;;
52888;SDS011;41413;52.770;6.892;2023-04-08T03:40:17;18.75;;;16.95;;
52888;SDS011;41413;52.770;6.892;2023-04-08T03:42:44;19.10;;;17.10;;
52888;SDS011;41413;52.770;6.892;2023-04-08T03:45:11;19.45;;;17.55;;
52888;SDS011;41413;52.770;6.892;2023-04-08T03:47:38;19.30;;;17.35;;
52888;SDS011;41413;52.770;6.892;2023-04-08T03:50:04;20.90;;;18.40;;
52888;SDS011;41413;52.770;6.892;2023-04-08T03:52:31;20.15;;;18.15;;
52888;SDS011;41413;52.770;6.892;2023-04-08T03:54:58;21.33;;;19.42;;
52888;SDS011;41413;52.770;6.892;2023-04-08T03:57:25;19.48;;;17.67;;
52888;SDS011;41413;52.770;6.892;2023-04-08T03:59:52;21.40;;;19.30;;
52888;SDS011;41413;52.770;6.892;2023-04-08T04:02:19;19.27;;;17.55;;
52888;SDS011;41413;52.770;6.892;2023-04-08T04:04:46;20.95;;;18.98;;
52888;SDS011;41413;52.770;6.892;2023-04-08T04:07:12;21.95;;;19.00;;
52888;SDS011;41413;52.770;6.892;2023-04-08T04:09:39;21.58;;;19.50;;
52888;SDS011;41413;52.770;6.892;2023-04-08T04:12:06;21.10;;;19.00;;
52888;SDS011;41413;52.770;6.892;2023-04-08T04:14:32;23.77;;;18.10;;
52888;SDS011;41413;52.770;6.892;2023-04-08T04:16:59;21.00;;;19.10;;
52888;SDS011;41413;52.770;6.892;2023-04-08T04:19:29;20.40;;;18.45;;
52888;SDS011;41413;52.770;6.892;2023-04-08T04:21:57;22.63;;;20.63;;
52888;SDS011;41413;52.770;6.892;2023-04-08T04:24:23;22.30;;;19.88;;
52888;SDS011;41413;52.770;6.892;2023-04-08T04:26:50;21.10;;;18.83;;
52888;SDS011;41413;52.770;6.892;2023-04-08T04:29:17;22.05;;;19.98;;
52888;SDS011;41413;52.770;6.892;2023-04-08T04:31:43;22.90;;;20.90;;
52888;SDS011;41413;52.770;6.892;2023-04-08T04:34:11;22.65;;;20.65;;
52888;SDS011;41413;52.770;6.892;2023-04-08T04:36:38;22.73;;;20.58;;
52888;SDS011;41413;52.770;6.892;2023-04-08T04:39:04;22.92;;;20.63;;
52888;SDS011;41413;52.770;6.892;2023-04-08T04:41:31;23.08;;;20.85;;
52888;SDS011;41413;52.770;6.892;2023-04-08T04:43:58;22.55;;;20.30;;
52888;SDS011;41413;52.770;6.892;2023-04-08T04:46:25;23.63;;;21.40;;
52888;SDS011;41413;52.770;6.892;2023-04-08T04:48:51;24.23;;;21.73;;
52888;SDS011;41413;52.770;6.892;2023-04-08T04:51:18;23.73;;;21.45;;
52888;SDS011;41413;52.770;6.892;2023-04-08T04:53:45;22.85;;;20.52;;
52888;SDS011;41413;52.770;6.892;2023-04-08T04:56:11;23.85;;;21.73;;
52888;SDS011;41413;52.770;6.892;2023-04-08T04:58:38;23.95;;;21.60;;
52888;SDS011;41413;52.770;6.892;2023-04-08T05:01:05;25.42;;;22.80;;
52888;SDS011;41413;52.770;6.892;2023-04-08T05:03:31;27.17;;;23.75;;
52888;SDS011;41413;52.770;6.892;2023-04-08T05:05:58;24.52;;;21.95;;
52888;SDS011;41413;52.770;6.892;2023-04-08T05:08:25;25.60;;;23.00;;
52888;SDS011;41413;52.770;6.892;2023-04-08T05:10:53;22.80;;;20.73;;
52888;SDS011;41413;52.770;6.892;2023-04-08T05:13:21;24.52;;;22.08;;
52888;SDS011;41413;52.770;6.892;2023-04-08T05:15:47;22.80;;;20.60;;
52888;SDS011;41413;52.770;6.892;2023-04-08T05:18:14;24.90;;;22.35;;
52888;SDS011;41413;52.770;6.892;2023-04-08T05:20:41;22.85;;;20.75;;
52888;SDS011;41413;52.770;6.892;2023-04-08T05:23:07;25.05;;;22.65;;
52888;SDS011;41413;52.770;6.892;2023-04-08T05:25:34;25.38;;;23.00;;
52888;SDS011;41413;52.770;6.892;2023-04-08T05:28:01;24.60;;;22.23;;
52888;SDS011;41413;52.770;6.892;2023-04-08T05:30:29;24.08;;;21.73;;
52888;SDS011;41413;52.770;6.892;2023-04-08T05:32:56;23.80;;;21.75;;
52888;SDS011;41413;52.770;6.892;2023-04-08T05:35:25;24.52;;;22.23;;
52888;SDS011;41413;52.770;6.892;2023-04-08T05:37:54;24.65;;;22.25;;
52888;SDS011;41413;52.770;6.892;2023-04-08T05:40:21;25.13;;;22.75;;
52888;SDS011;41413;52.770;6.892;2023-04-08T05:42:48;23.77;;;20.40;;
52888;SDS011;41413;52.770;6.892;2023-04-08T05:45:15;23.73;;;21.38;;
52888;SDS011;41413;52.770;6.892;2023-04-08T05:47:42;24.98;;;22.48;;
52888;SDS011;41413;52.770;6.892;2023-04-08T05:50:09;24.42;;;22.17;;
52888;SDS011;41413;52.770;6.892;2023-04-08T05:52:36;25.10;;;22.38;;
52888;SDS011;41413;52.770;6.892;2023-04-08T05:55:07;21.95;;;19.75;;
52888;SDS011;41413;52.770;6.892;2023-04-08T05:57:33;22.60;;;20.40;;
52888;SDS011;41413;52.770;6.892;2023-04-08T06:00:00;23.00;;;20.90;;
52888;SDS011;41413;52.770;6.892;2023-04-08T06:02:27;29.05;;;22.50;;
52888;SDS011;41413;52.770;6.892;2023-04-08T06:04:54;23.67;;;21.00;;
52888;SDS011;41413;52.770;6.892;2023-04-08T06:07:21;24.75;;;22.40;;
52888;SDS011;41413;52.770;6.892;2023-04-08T06:09:48;24.98;;;22.63;;
52888;SDS011;41413;52.770;6.892;2023-04-08T06:12:14;28.23;;;21.58;;
52888;SDS011;41413;52.770;6.892;2023-04-08T06:14:41;22.83;;;20.55;;
52888;SDS011;41413;52.770;6.892;2023-04-08T06:17:08;23.85;;;21.48;;
52888;SDS011;41413;52.770;6.892;2023-04-08T06:19:34;23.05;;;20.80;;
52888;SDS011;41413;52.770;6.892;2023-04-08T06:22:01;24.02;;;21.73;;
52888;SDS011;41413;52.770;6.892;2023-04-08T06:24:28;24.20;;;22.00;;
52888;SDS011;41413;52.770;6.892;2023-04-08T06:26:55;25.83;;;23.25;;
52888;SDS011;41413;52.770;6.892;2023-04-08T06:29:22;24.10;;;21.70;;
52888;SDS011;41413;52.770;6.892;2023-04-08T06:31:49;25.25;;;22.85;;
52888;SDS011;41413;52.770;6.892;2023-04-08T06:34:16;24.35;;;21.75;;
52888;SDS011;41413;52.770;6.892;2023-04-08T06:36:43;25.30;;;22.83;;
52888;SDS011;41413;52.770;6.892;2023-04-08T06:39:09;24.23;;;21.92;;
52888;SDS011;41413;52.770;6.892;2023-04-08T06:41:36;23.83;;;21.30;;
52888;SDS011;41413;52.770;6.892;2023-04-08T06:44:03;22.60;;;20.27;;
52888;SDS011;41413;52.770;6.892;2023-04-08T06:46:29;23.60;;;21.23;;
52888;SDS011;41413;52.770;6.892;2023-04-08T06:48:56;23.40;;;21.23;;
52888;SDS011;41413;52.770;6.892;2023-04-08T06:51:23;22.98;;;20.83;;
52888;SDS011;41413;52.770;6.892;2023-04-08T06:53:49;23.45;;;21.10;;
52888;SDS011;41413;52.770;6.892;2023-04-08T06:56:17;23.70;;;21.33;;
52888;SDS011;41413;52.770;6.892;2023-04-08T06:58:43;24.65;;;22.30;;
52888;SDS011;41413;52.770;6.892;2023-04-08T07:01:10;27.30;;;24.48;;
52888;SDS011;41413;52.770;6.892;2023-04-08T07:03:37;23.90;;;21.35;;
52888;SDS011;41413;52.770;6.892;2023-04-08T07:06:04;24.58;;;22.27;;
52888;SDS011;41413;52.770;6.892;2023-04-08T07:08:31;25.70;;;23.27;;
52888;SDS011;41413;52.770;6.892;2023-04-08T07:10:58;23.75;;;21.45;;
52888;SDS011;41413;52.770;6.892;2023-04-08T07:13:24;24.27;;;22.02;;
52888;SDS011;41413;52.770;6.892;2023-04-08T07:15:51;23.30;;;21.15;;
52888;SDS011;41413;52.770;6.892;2023-04-08T07:18:18;25.00;;;22.50;;
52888;SDS011;41413;52.770;6.892;2023-04-08T07:20:51;24.88;;;22.58;;
52888;SDS011;41413;52.770;6.892;2023-04-08T07:23:19;24.30;;;21.23;;
52888;SDS011;41413;52.770;6.892;2023-04-08T07:25:46;23.50;;;21.40;;
52888;SDS011;41413;52.770;6.892;2023-04-08T07:28:13;23.30;;;21.10;;
52888;SDS011;41413;52.770;6.892;2023-04-08T07:30:40;24.08;;;21.77;;
52888;SDS011;41413;52.770;6.892;2023-04-08T07:33:07;22.88;;;20.67;;
52888;SDS011;41413;52.770;6.892;2023-04-08T07:35:34;24.65;;;22.17;;
52888;SDS011;41413;52.770;6.892;2023-04-08T07:38:01;22.35;;;20.25;;
52888;SDS011;41413;52.770;6.892;2023-04-08T07:40:27;22.65;;;20.40;;
52888;SDS011;41413;52.770;6.892;2023-04-08T07:42:55;22.83;;;20.52;;
52888;SDS011;41413;52.770;6.892;2023-04-08T07:45:21;23.35;;;20.83;;
52888;SDS011;41413;52.770;6.892;2023-04-08T07:47:48;21.05;;;19.08;;
52888;SDS011;41413;52.770;6.892;2023-04-08T07:50:15;20.10;;;17.98;;
52888;SDS011;41413;52.770;6.892;2023-04-08T07:52:42;20.60;;;18.60;;
52888;SDS011;41413;52.770;6.892;2023-04-08T07:55:09;20.25;;;18.35;;
52888;SDS011;41413;52.770;6.892;2023-04-08T07:57:36;20.50;;;18.60;;
52888;SDS011;41413;52.770;6.892;2023-04-08T08:00:03;20.20;;;18.30;;
52888;SDS011;41413;52.770;6.892;2023-04-08T08:02:30;20.10;;;18.23;;
52888;SDS011;41413;52.770;6.892;2023-04-08T08:04:56;19.95;;;18.02;;
52888;SDS011;41413;52.770;6.892;2023-04-08T08:07:23;21.20;;;19.05;;
52888;SDS011;41413;52.770;6.892;2023-04-08T08:09:50;19.20;;;17.33;;
52888;SDS011;41413;52.770;6.892;2023-04-08T08:12:17;18.33;;;16.55;;
52888;SDS011;41413;52.770;6.892;2023-04-08T08:14:44;18.73;;;17.13;;
52888;SDS011;41413;52.770;6.892;2023-04-08T08:17:10;19.73;;;17.92;;
52888;SDS011;41413;52.770;6.892;2023-04-08T08:19:37;20.38;;;18.50;;
52888;SDS011;41413;52.770;6.892;2023-04-08T08:22:04;17.90;;;16.08;;
52888;SDS011;41413;52.770;6.892;2023-04-08T08:24:31;17.25;;;15.65;;
52888;SDS011;41413;52.770;6.892;2023-04-08T08:26:57;17.50;;;15.68;;
52888;SDS011;41413;52.770;6.892;2023-04-08T08:29:24;17.95;;;16.23;;
52888;SDS011;41413;52.770;6.892;2023-04-08T08:31:51;15.20;;;13.90;;
52888;SDS011;41413;52.770;6.892;2023-04-08T08:34:18;17.35;;;15.77;;
52888;SDS011;41413;52.770;6.892;2023-04-08T08:36:45;15.65;;;14.15;;
52888;SDS011;41413;52.770;6.892;2023-04-08T08:39:11;16.85;;;15.27;;
52888;SDS011;41413;52.770;6.892;2023-04-08T08:41:38;16.50;;;14.90;;
52888;SDS011;41413;52.770;6.892;2023-04-08T08:44:06;15.57;;;14.07;;
52888;SDS011;41413;52.770;6.892;2023-04-08T08:46:33;16.20;;;14.60;;
52888;SDS011;41413;52.770;6.892;2023-04-08T08:49:00;14.65;;;13.35;;
52888;SDS011;41413;52.770;6.892;2023-04-08T08:51:27;14.57;;;13.27;;
52888;SDS011;41413;52.770;6.892;2023-04-08T08:54:00;14.90;;;13.40;;
52888;SDS011;41413;52.770;6.892;2023-04-08T08:56:29;13.25;;;12.10;;
52888;SDS011;41413;52.770;6.892;2023-04-08T08:58:57;18.02;;;13.18;;
52888;SDS011;41413;52.770;6.892;2023-04-08T09:01:39;13.70;;;12.50;;
52888;SDS011;41413;52.770;6.892;2023-04-08T09:04:10;13.45;;;12.18;;
52888;SDS011;41413;52.770;6.892;2023-04-08T09:06:46;12.85;;;11.75;;
52888;SDS011;41413;52.770;6.892;2023-04-08T09:09:15;13.60;;;12.48;;
52888;SDS011;41413;52.770;6.892;2023-04-08T09:11:43;13.95;;;12.75;;
52888;SDS011;41413;52.770;6.892;2023-04-08T09:14:24;13.55;;;12.45;;
52888;SDS011;41413;52.770;6.892;2023-04-08T09:16:51;14.95;;;13.68;;
52888;SDS011;41413;52.770;6.892;2023-04-08T09:19:18;13.77;;;12.57;;
52888;SDS011;41413;52.770;6.892;2023-04-08T09:21:47;15.13;;;13.75;;
52888;SDS011;41413;52.770;6.892;2023-04-08T09:24:34;15.15;;;13.77;;
52888;SDS011;41413;52.770;6.892;2023-04-08T09:27:03;15.52;;;14.23;;
52888;SDS011;41413;52.770;6.892;2023-04-08T09:29:30;15.88;;;14.55;;
52888;SDS011;41413;52.770;6.892;2023-04-08T09:32:02;16.10;;;14.77;;
52888;SDS011;41413;52.770;6.892;2023-04-08T09:34:29;15.48;;;14.18;;
52888;SDS011;41413;52.770;6.892;2023-04-08T09:36:59;16.77;;;15.27;;
52888;SDS011;41413;52.770;6.892;2023-04-08T09:39:26;16.33;;;14.82;;
52888;SDS011;41413;52.770;6.892;2023-04-08T09:41:53;15.70;;;14.38;;
52888;SDS011;41413;52.770;6.892;2023-04-08T09:44:26;17.67;;;16.20;;
52888;SDS011;41413;52.770;6.892;2023-04-08T09:47:03;16.35;;;14.95;;
52888;SDS011;41413;52.770;6.892;2023-04-08T09:49:39;17.60;;;15.95;;
52888;SDS011;41413;52.770;6.892;2023-04-08T09:57:27;19.33;;;17.63;;
52888;SDS011;41413;52.770;6.892;2023-04-08T10:00:08;19.67;;;17.85;;
52888;SDS011;41413;52.770;6.892;2023-04-08T10:02:44;21.05;;;19.13;;
52888;SDS011;41413;52.770;6.892;2023-04-08T10:05:21;20.67;;;18.63;;
52888;SDS011;41413;52.770;6.892;2023-04-08T10:07:50;19.38;;;17.35;;
52888;SDS011;41413;52.770;6.892;2023-04-08T10:10:17;19.65;;;17.90;;
52888;SDS011;41413;52.770;6.892;2023-04-08T10:12:45;20.15;;;18.33;;
52888;SDS011;41413;52.770;6.892;2023-04-08T10:15:31;21.02;;;19.13;;
52888;SDS011;41413;52.770;6.892;2023-04-08T10:22:59;20.00;;;18.23;;
52888;SDS011;41413;52.770;6.892;2023-04-08T10:25:36;18.02;;;16.42;;
52888;SDS011;41413;52.770;6.892;2023-04-08T10:33:11;21.48;;;19.38;;
52888;SDS011;41413;52.770;6.892;2023-04-08T10:36:26;20.40;;;18.50;;
52888;SDS011;41413;52.770;6.892;2023-04-08T10:38:40;18.95;;;17.25;;
52888;SDS011;41413;52.770;6.892;2023-04-08T10:41:10;20.20;;;18.33;;
52888;SDS011;41413;52.770;6.892;2023-04-08T10:43:46;20.63;;;18.73;;
52888;SDS011;41413;52.770;6.892;2023-04-08T10:46:13;19.88;;;18.02;;
52888;SDS011;41413;52.770;6.892;2023-04-08T10:48:40;19.42;;;17.55;;
52888;SDS011;41413;52.770;6.892;2023-04-08T10:51:07;19.92;;;18.13;;
52888;SDS011;41413;52.770;6.892;2023-04-08T10:53:34;20.25;;;18.25;;
52888;SDS011;41413;52.770;6.892;2023-04-08T10:56:03;20.90;;;18.77;;
52888;SDS011;41413;52.770;6.892;2023-04-08T10:58:32;20.30;;;18.30;;
52888;SDS011;41413;52.770;6.892;2023-04-08T11:01:12;17.95;;;16.17;;
52888;SDS011;41413;52.770;6.892;2023-04-08T11:03:39;15.65;;;14.15;;
52888;SDS011;41413;52.770;6.892;2023-04-08T11:06:08;15.10;;;13.80;;
52888;SDS011;41413;52.770;6.892;2023-04-08T11:08:35;17.92;;;16.13;;
52888;SDS011;41413;52.770;6.892;2023-04-08T11:11:03;16.70;;;15.18;;
52888;SDS011;41413;52.770;6.892;2023-04-08T11:13:34;18.70;;;16.92;;
52888;SDS011;41413;52.770;6.892;2023-04-08T11:16:02;18.52;;;16.95;;
52888;SDS011;41413;52.770;6.892;2023-04-08T11:18:43;19.15;;;17.40;;
52888;SDS011;41413;52.770;6.892;2023-04-08T11:21:11;18.38;;;16.58;;
52888;SDS011;41413;52.770;6.892;2023-04-08T11:23:38;15.85;;;14.20;;
52888;SDS011;41413;52.770;6.892;2023-04-08T11:26:04;18.50;;;16.83;;
52888;SDS011;41413;52.770;6.892;2023-04-08T11:28:31;17.98;;;16.35;;
52888;SDS011;41413;52.770;6.892;2023-04-08T11:31:00;20.00;;;18.00;;
52888;SDS011;41413;52.770;6.892;2023-04-08T11:33:31;20.10;;;17.95;;
52888;SDS011;41413;52.770;6.892;2023-04-08T11:35:59;20.85;;;18.95;;
52888;SDS011;41413;52.770;6.892;2023-04-08T11:38:29;20.08;;;18.02;;
52888;SDS011;41413;52.770;6.892;2023-04-08T11:40:56;18.90;;;17.08;;
52888;SDS011;41413;52.770;6.892;2023-04-08T11:43:24;20.20;;;18.35;;
52888;SDS011;41413;52.770;6.892;2023-04-08T11:45:51;21.83;;;19.70;;
52888;SDS011;41413;52.770;6.892;2023-04-08T11:48:18;19.85;;;17.98;;
52888;SDS011;41413;52.770;6.892;2023-04-08T11:50:45;20.92;;;18.80;;
52888;SDS011;41413;52.770;6.892;2023-04-08T11:53:18;19.65;;;17.75;;
52888;SDS011;41413;52.770;6.892;2023-04-08T11:55:47;19.48;;;17.50;;
52888;SDS011;41413;52.770;6.892;2023-04-08T11:58:14;20.25;;;18.35;;
52888;SDS011;41413;52.770;6.892;2023-04-08T12:00:41;21.05;;;18.98;;
52888;SDS011;41413;52.770;6.892;2023-04-08T12:03:09;20.23;;;18.23;;
52888;SDS011;41413;52.770;6.892;2023-04-08T12:05:36;21.23;;;19.23;;
52888;SDS011;41413;52.770;6.892;2023-04-08T12:08:03;23.23;;;21.00;;
52888;SDS011;41413;52.770;6.892;2023-04-08T12:10:30;21.35;;;19.40;;
52888;SDS011;41413;52.770;6.892;2023-04-08T12:12:57;21.73;;;19.65;;
52888;SDS011;41413;52.770;6.892;2023-04-08T12:15:23;20.92;;;18.90;;
52888;SDS011;41413;52.770;6.892;2023-04-08T12:17:50;20.30;;;18.35;;
52888;SDS011;41413;52.770;6.892;2023-04-08T12:20:17;23.30;;;21.08;;
52888;SDS011;41413;52.770;6.892;2023-04-08T12:22:44;22.08;;;20.05;;
52888;SDS011;41413;52.770;6.892;2023-04-08T12:25:10;21.70;;;19.65;;
52888;SDS011;41413;52.770;6.892;2023-04-08T12:27:37;23.60;;;19.92;;
52888;SDS011;41413;52.770;6.892;2023-04-08T12:30:04;25.08;;;22.70;;
52888;SDS011;41413;52.770;6.892;2023-04-08T12:32:31;24.23;;;22.10;;
52888;SDS011;41413;52.770;6.892;2023-04-08T12:34:58;24.23;;;21.80;;
52888;SDS011;41413;52.770;6.892;2023-04-08T12:37:25;24.17;;;21.83;;
52888;SDS011;41413;52.770;6.892;2023-04-08T12:39:53;25.35;;;23.00;;
52888;SDS011;41413;52.770;6.892;2023-04-08T12:42:19;26.83;;;24.23;;
52888;SDS011;41413;52.770;6.892;2023-04-08T12:44:46;23.77;;;21.33;;
52888;SDS011;41413;52.770;6.892;2023-04-08T12:47:13;26.65;;;24.05;;
52888;SDS011;41413;52.770;6.892;2023-04-08T12:49:40;29.23;;;26.27;;
52888;SDS011;41413;52.770;6.892;2023-04-08T12:52:09;26.73;;;24.00;;
52888;SDS011;41413;52.770;6.892;2023-04-08T12:54:36;29.95;;;26.90;;
52888;SDS011;41413;52.770;6.892;2023-04-08T12:57:02;29.40;;;26.30;;
52888;SDS011;41413;52.770;6.892;2023-04-08T12:59:29;30.58;;;27.83;;
52888;SDS011;41413;52.770;6.892;2023-04-08T13:01:58;32.20;;;29.02;;
52888;SDS011;41413;52.770;6.892;2023-04-08T13:04:25;28.33;;;25.58;;
52888;SDS011;41413;52.770;6.892;2023-04-08T13:06:52;34.50;;;30.77;;
52888;SDS011;41413;52.770;6.892;2023-04-08T13:09:18;32.80;;;29.50;;
52888;SDS011;41413;52.770;6.892;2023-04-08T13:11:45;29.08;;;26.17;;
52888;SDS011;41413;52.770;6.892;2023-04-08T13:14:12;28.92;;;26.02;;
52888;SDS011;41413;52.770;6.892;2023-04-08T13:16:39;28.70;;;25.92;;
52888;SDS011;41413;52.770;6.892;2023-04-08T13:19:06;28.67;;;25.92;;
52888;SDS011;41413;52.770;6.892;2023-04-08T13:21:32;31.92;;;28.30;;
52888;SDS011;41413;52.770;6.892;2023-04-08T13:23:59;29.52;;;26.55;;
52888;SDS011;41413;52.770;6.892;2023-04-08T13:26:26;30.45;;;27.45;;
52888;SDS011;41413;52.770;6.892;2023-04-08T13:28:52;29.02;;;26.33;;
52888;SDS011;41413;52.770;6.892;2023-04-08T13:31:23;49.75;;;31.83;;
52888;SDS011;41413;52.770;6.892;2023-04-08T13:33:51;31.48;;;27.27;;
52888;SDS011;41413;52.770;6.892;2023-04-08T13:36:22;30.70;;;27.48;;
52888;SDS011;41413;52.770;6.892;2023-04-08T13:38:48;34.38;;;30.08;;
52888;SDS011;41413;52.770;6.892;2023-04-08T13:41:16;33.00;;;29.60;;
52888;SDS011;41413;52.770;6.892;2023-04-08T13:43:42;33.45;;;29.55;;
52888;SDS011;41413;52.770;6.892;2023-04-08T13:46:09;31.38;;;28.05;;
52888;SDS011;41413;52.770;6.892;2023-04-08T13:48:36;33.72;;;30.35;;
52888;SDS011;41413;52.770;6.892;2023-04-08T13:51:03;31.73;;;28.35;;
52888;SDS011;41413;52.770;6.892;2023-04-08T13:53:30;33.55;;;29.40;;
52888;SDS011;41413;52.770;6.892;2023-04-08T13:55:57;31.35;;;28.25;;
52888;SDS011;41413;52.770;6.892;2023-04-08T13:58:24;32.45;;;29.15;;
52888;SDS011;41413;52.770;6.892;2023-04-08T14:00:51;32.63;;;29.25;;
52888;SDS011;41413;52.770;6.892;2023-04-08T14:03:18;33.80;;;30.25;;
52888;SDS011;41413;52.770;6.892;2023-04-08T14:05:45;31.25;;;28.05;;
52888;SDS011;41413;52.770;6.892;2023-04-08T14:08:12;34.83;;;31.33;;
52888;SDS011;41413;52.770;6.892;2023-04-08T14:10:39;31.88;;;28.65;;
52888;SDS011;41413;52.770;6.892;2023-04-08T14:13:07;37.45;;;33.65;;
52888;SDS011;41413;52.770;6.892;2023-04-08T14:15:34;35.15;;;31.55;;
52888;SDS011;41413;52.770;6.892;2023-04-08T14:18:01;34.03;;;30.63;;
52888;SDS011;41413;52.770;6.892;2023-04-08T14:20:28;33.75;;;30.35;;
52888;SDS011;41413;52.770;6.892;2023-04-08T14:22:55;33.75;;;30.33;;
52888;SDS011;41413;52.770;6.892;2023-04-08T14:25:22;32.30;;;29.20;;
52888;SDS011;41413;52.770;6.892;2023-04-08T14:27:49;35.45;;;31.75;;
52888;SDS011;41413;52.770;6.892;2023-04-08T14:30:24;35.42;;;31.58;;
52888;SDS011;41413;52.770;6.892;2023-04-08T14:32:52;38.22;;;34.13;;
52888;SDS011;41413;52.770;6.892;2023-04-08T14:35:19;38.42;;;33.08;;
52888;SDS011;41413;52.770;6.892;2023-04-08T14:37:46;39.33;;;35.22;;
52888;SDS011;41413;52.770;6.892;2023-04-08T14:40:13;36.65;;;32.75;;
52888;SDS011;41413;52.770;6.892;2023-04-08T14:42:40;35.97;;;32.38;;
52888;SDS011;41413;52.770;6.892;2023-04-08T14:45:07;38.67;;;34.58;;